Decoded Metar for YPLM (LEARMONTH in AUSTRALIA) (IATA:LEA) | Meteo·Mobile Aviation Weather
aviador You're here:

YPLM Decoded Metar

LEARMONTH in AUSTRALIA
Report Time2019-10-19 22:30:00
UTC Time2019-10-19 22:55:27
Flight Rules vfr VFR
Wind220° at 08 kt
W.Decomp.*RWY 18: 6.2 kt HW 5.0 kt RCW
Visibility9999 m
Phenomena:N/A
Clouds:N/A
Expected CloudBase > 400 ft AGL from Temp-Dew spread
CeilingNone
Temp18°C (ISA +3)
Dew Point17°C (94% RH)
AAT17.5°C
QNH1016 hPa
Density Alt531 ft
Elevation20 ft
Report Wrong Elevation
Raw Report
YPLM 192230Z AUTO 22008KT 9999 // NCD 18/17 Q1016 RF00.0/000.0=

Extra information for YPLM:More info

Metar Taf Metar & Taf Last 4 Metars F.Rules Stats Wind Profile Meteogram Temp Stats Airport Information Weather charts Add Link Nearby VenuesMetar ALERT Operation Metar Decoded Social comments